Florence, KY (41022)

8:00 PM EDT on August 04, 2015 (GMT -0400)
Bluestone | | Change Station
CLOSE
Current Station
Personal Weather Station
Location: Florence, KY
Elevation: 823 ft
Nearby Weather Stations

Elev 823 ft 38.99 °N, 84.69 °W | Updated 33 seconds ago

Mostly Cloudy
Mostly Cloudy
78.3 °F
Feels Like 80 °F
N
0.0
Wind Variable Wind from NNW
Gusts 0.0 mph

Today
High -- | Low -- °F
--% Chance of Precip.
Yesterday
High -- | Low -- °F
Precip. -- in
6:41 AM 8:46 PM
Waning Gibbous, 73% visible
Pressure 29.96 in
Visibility 10.0 miles
Clouds Few 3000 ft
Mostly Cloudy 11000 ft
Mostly Cloudy 15000 ft
Heat Index 80 °F
Dew Point 64 °F
Humidity 62%
Rainfall 0.00 in
Snow Depth Not available.
UV 0 out of 12
Pollen 6.60 out of 12
Air Quality Not available.
Flu Activity Not available.
METAR KCVG 042352Z 35004KT 10SM FEW030 BKN110 BKN150 26/17 A2998 RMK AO2 SLP143 T02560167 10294 20256 58001

More Conditions Fewer Conditions

Pressure 29.96 in
Visibility 10.0 miles
Clouds Few 3000 ft
Mostly Cloudy 11000 ft
Mostly Cloudy 15000 ft
Heat Index 80 °F
Dew Point 64 °F
Humidity 62%
Rainfall 0.00 in
Snow Depth Not available.
UV 0 out of 12
Pollen 6.60 out of 12
Air Quality Not available.
Flu Activity Not available.
METAR KCVG 042352Z 35004KT 10SM FEW030 BKN110 BKN150 26/17 A2998 RMK AO2 SLP143 T02560167 10294 20256 58001

More Conditions Fewer Conditions

10-Day Weather Forecast

×

Almanac

Astronomy

Aug. 04, 2015 Rise Set
Actual Time
Civil Twilight
Nautical Twilight
Astronomical Twilight
Moon
Length of Visible Light
Length of Day
Tomorrow will be .
, % of the Moon is Illuminated

Today's Extremes

State Highs State Lows

Community

WunderPhotos

Upload Photos

1,844,024 photos uploaded!

WunderBlogs® & News

Nearby

Air Quality

  Air Quality AQ Index Pollutant
Not available.

Snow Depth

Station Depth Elevation

Earthquake Activity

City Distance Mag. Time & Date
Minimum magnitude displayed is 2.5.

Coastal Water Temperatures

Place Temperature

Stations

Nearby Weather Stations

Station Location Temp. Windchill Dew Point Humidity Wind Precip. Elev Updated Type